Terminal Aerodrome Forecast
Issued by NWS

Home | Current Version | Previous Version | Text Only | Print | Product List | Glossary On
Versions: 1 2 3 4 5 6 7 8 9 10 11 12 13 14 15 16 17 18 19 20 21 22 23
000
FTUS43 KDLH 180100 AAB
TAFHYR
TAF AMD
KHYR 180120Z 1801/1824 04012KT P6SM OVC007
     FM180300 05005KT 4SM BR OVC007
     FM181200 11005KT 6SM BR SCT015 BKN035
     FM181800 15007KT P6SM BKN035=

USA.gov is the U.S. government's official web portal to all federal, state and local government web resources and services.